createdAt,value
2017-08-05T00:00:42.126Z,99.99
2017-08-05T00:01:51.981Z,99.99
2017-08-05T00:03:02.161Z,99.99
2017-08-05T00:04:11.367Z,99.99
2017-08-05T00:05:20.899Z,99.99
2017-08-05T00:06:30.752Z,99.99
2017-08-05T00:07:39.961Z,99.99
2017-08-05T00:08:49.174Z,99.99
2017-08-05T00:09:59.028Z,99.99
2017-08-05T00:11:08.877Z,99.99
2017-08-05T00:12:18.883Z,99.99
2017-08-05T00:13:28.086Z,99.99
2017-08-05T00:14:37.621Z,99.99
2017-08-05T00:15:47.157Z,99.99
2017-08-05T00:16:56.371Z,99.99
2017-08-05T00:18:06.223Z,99.99
2017-08-05T00:19:16.088Z,99.99
2017-08-05T00:20:25.618Z,99.99
2017-08-05T00:21:35.477Z,99.99
2017-08-05T00:22:44.358Z,99.99
2017-08-05T00:23:53.893Z,99.99
2017-08-05T00:25:03.747Z,99.99
2017-08-05T00:26:13.290Z,99.99
2017-08-05T00:27:22.818Z,99.99
2017-08-05T00:28:32.350Z,99.99
2017-08-05T00:29:42.358Z,99.99
2017-08-05T00:30:51.908Z,99.99
2017-08-05T00:32:01.442Z,99.99
2017-08-05T00:33:10.971Z,99.99
2017-08-05T00:34:20.177Z,99.99
2017-08-05T00:35:30.231Z,99.99
2017-08-05T00:36:39.445Z,99.99
2017-08-05T00:37:48.328Z,99.99
2017-08-05T00:38:58.179Z,99.99
2017-08-05T00:40:08.043Z,99.99
2017-08-05T00:41:18.354Z,99.99
2017-08-05T00:42:27.561Z,99.99
2017-08-05T00:43:36.446Z,99.99
2017-08-05T00:44:45.659Z,99.99
2017-08-05T00:45:55.514Z,99.99
2017-08-05T00:47:05.022Z,99.99
2017-08-05T00:48:14.227Z,99.99
2017-08-05T00:49:23.755Z,99.99
2017-08-05T00:50:33.291Z,99.99
2017-08-05T00:51:42.821Z,99.99
2017-08-05T00:52:52.676Z,99.99
2017-08-05T00:54:01.564Z,99.99
2017-08-05T00:55:11.094Z,99.99
2017-08-05T00:56:20.302Z,99.99
2017-08-05T00:57:29.838Z,99.99
2017-08-05T00:58:39.042Z,99.99
2017-08-05T00:59:48.248Z,99.99
2017-08-05T01:00:57.130Z,99.99
2017-08-05T01:02:06.661Z,99.99
2017-08-05T01:03:15.868Z,99.99
2017-08-05T01:04:25.225Z,99.99
2017-08-05T01:05:34.117Z,99.99
2017-08-05T01:06:43.021Z,99.99
2017-08-05T01:07:52.552Z,99.99
2017-08-05T01:09:02.419Z,99.99
2017-08-05T01:10:12.273Z,99.99
2017-08-05T01:11:22.129Z,99.99
2017-08-05T01:12:31.657Z,99.99
2017-08-05T01:13:41.512Z,99.99
2017-08-05T01:14:50.718Z,99.99
2017-08-05T01:15:59.979Z,99.99
2017-08-05T01:17:09.183Z,99.99
2017-08-05T01:18:18.390Z,99.99
2017-08-05T01:19:27.596Z,99.99
2017-08-05T01:20:37.451Z,99.99
2017-08-05T01:21:47.239Z,99.99
2017-08-05T01:22:56.445Z,99.99
2017-08-05T01:24:05.652Z,99.99
2017-08-05T01:25:15.840Z,99.99
2017-08-05T01:26:24.734Z,99.99
2017-08-05T01:27:34.473Z,99.99
2017-08-05T01:28:43.358Z,99.99
2017-08-05T01:29:52.568Z,99.99
2017-08-05T01:31:01.453Z,99.99
2017-08-05T01:32:10.981Z,99.99
2017-08-05T01:33:20.492Z,99.99
2017-08-05T01:34:29.698Z,99.99
2017-08-05T01:35:39.250Z,99.99
2017-08-05T01:36:48.136Z,99.99
2017-08-05T01:37:57.346Z,99.99
2017-08-05T01:39:07.350Z,99.99
2017-08-05T01:40:16.554Z,99.99
2017-08-05T01:41:26.090Z,99.99
2017-08-05T01:42:35.951Z,99.99
2017-08-05T01:43:45.485Z,99.99
2017-08-05T01:44:54.838Z,99.99
2017-08-05T01:46:04.698Z,99.99
2017-08-05T01:47:13.916Z,99.99
2017-08-05T01:48:23.121Z,99.99
2017-08-05T01:49:32.650Z,99.99
2017-08-05T01:50:42.605Z,99.99
2017-08-05T01:51:52.136Z,99.99
2017-08-05T01:53:01.341Z,99.99
2017-08-05T01:54:11.192Z,99.99
2017-08-05T01:55:20.725Z,99.99
2017-08-05T01:56:30.235Z,99.99
2017-08-05T01:57:39.441Z,99.99
2017-08-05T01:58:48.647Z,99.99
2017-08-05T01:59:58.501Z,99.99
2017-08-05T02:01:07.709Z,99.99
2017-08-05T02:02:17.609Z,99.99
2017-08-05T02:03:27.786Z,99.99
2017-08-05T02:04:36.996Z,99.99
2017-08-05T02:05:46.531Z,99.99
2017-08-05T02:06:56.067Z,99.99
2017-08-05T02:08:05.420Z,99.99
2017-08-05T02:09:14.946Z,99.99
2017-08-05T02:10:24.156Z,99.99
2017-08-05T02:11:34.017Z,99.99
2017-08-05T02:12:43.548Z,99.99
2017-08-05T02:13:53.228Z,99.99
2017-08-05T02:15:03.403Z,99.99
2017-08-05T02:16:12.935Z,99.99
2017-08-05T02:17:21.824Z,99.99
2017-08-05T02:18:31.679Z,99.99
2017-08-05T02:19:40.661Z,99.99
2017-08-05T02:20:49.869Z,99.99
2017-08-05T02:21:59.397Z,99.99
2017-08-05T02:23:09.261Z,99.99
2017-08-05T02:24:18.468Z,99.99
2017-08-05T02:25:28.156Z,99.99
2017-08-05T02:26:38.014Z,99.99
2017-08-05T02:27:46.893Z,99.99
2017-08-05T02:28:56.845Z,99.99
2017-08-05T02:30:06.053Z,99.99
2017-08-05T02:31:15.965Z,99.99
2017-08-05T02:32:25.838Z,99.99
2017-08-05T02:33:35.366Z,99.99
2017-08-05T02:34:44.900Z,99.99
2017-08-05T02:35:55.073Z,99.99
2017-08-05T02:37:05.077Z,99.99
2017-08-05T02:38:14.603Z,99.99
2017-08-05T02:39:23.811Z,99.99
2017-08-05T02:40:33.019Z,99.99
2017-08-05T02:41:42.898Z,99.99
2017-08-05T02:42:52.530Z,99.99
2017-08-05T02:44:02.060Z,99.99
2017-08-05T02:45:12.248Z,99.99
2017-08-05T02:46:21.776Z,99.99
2017-08-05T02:47:31.648Z,99.99
2017-08-05T02:48:41.283Z,99.99
2017-08-05T02:49:51.132Z,99.99
2017-08-05T02:51:00.660Z,99.99
2017-08-05T02:52:10.558Z,99.99
2017-08-05T02:53:20.735Z,99.99
2017-08-05T02:54:30.315Z,99.99
2017-08-05T02:55:39.199Z,99.99
2017-08-05T02:56:48.730Z,99.99
2017-08-05T02:57:58.590Z,99.99
2017-08-05T02:59:08.120Z,99.99
2017-08-05T03:00:17.153Z,99.99
2017-08-05T03:01:26.360Z,99.99
2017-08-05T03:02:35.891Z,99.99
2017-08-05T03:03:45.097Z,99.99
2017-08-05T03:04:54.625Z,99.99
2017-08-05T03:06:04.636Z,99.99
2017-08-05T03:07:14.508Z,99.99
2017-08-05T03:08:24.041Z,99.99
2017-08-05T03:09:33.254Z,99.99
2017-08-05T03:10:42.804Z,99.99
2017-08-05T03:11:52.630Z,99.99
2017-08-05T03:13:02.167Z,99.99
2017-08-05T03:14:11.705Z,99.99
2017-08-05T03:15:21.572Z,99.99
2017-08-05T03:16:31.744Z,99.99
2017-08-05T03:17:41.201Z,99.99
2017-08-05T03:18:50.415Z,99.99
2017-08-05T03:20:00.266Z,99.99
2017-08-05T03:21:09.793Z,99.99
2017-08-05T03:22:19.659Z,99.99
2017-08-05T03:23:29.293Z,99.99
2017-08-05T03:24:38.824Z,99.99
2017-08-05T03:25:48.692Z,99.99
2017-08-05T03:26:57.901Z,99.99
2017-08-05T03:28:08.077Z,99.99
2017-08-05T03:29:17.333Z,99.99
2017-08-05T03:30:26.884Z,99.99
2017-08-05T03:31:36.754Z,99.99
2017-08-05T03:32:45.957Z,99.99
2017-08-05T03:33:55.164Z,99.99
2017-08-05T03:35:05.009Z,99.99
2017-08-05T03:36:14.863Z,99.99
2017-08-05T03:37:24.391Z,99.99
2017-08-05T03:38:33.921Z,99.99
2017-08-05T03:39:43.132Z,99.99
2017-08-05T03:40:52.067Z,99.99
2017-08-05T03:42:01.273Z,99.99
2017-08-05T03:43:10.481Z,99.99
2017-08-05T03:44:20.004Z,99.99
2017-08-05T03:45:29.534Z,99.99
2017-08-05T03:46:38.741Z,99.99
2017-08-05T03:47:48.278Z,99.99
2017-08-05T03:48:57.488Z,99.99
2017-08-05T03:50:06.696Z,99.99
2017-08-05T03:51:16.234Z,99.99
2017-08-05T03:52:25.818Z,99.99
2017-08-05T03:53:35.022Z,99.99
2017-08-05T03:54:44.548Z,99.99
2017-08-05T03:55:53.762Z,99.99
2017-08-05T03:57:02.970Z,99.99
2017-08-05T03:58:12.505Z,99.99
2017-08-05T03:59:21.711Z,99.99
2017-08-05T04:00:30.592Z,99.99
2017-08-05T04:01:39.799Z,99.99
2017-08-05T04:02:49.982Z,99.99
2017-08-05T04:03:59.984Z,99.99
2017-08-05T04:05:09.837Z,99.99
2017-08-05T04:06:19.048Z,99.99
2017-08-05T04:07:28.260Z,99.99
2017-08-05T04:08:37.465Z,99.99
2017-08-05T04:09:46.819Z,99.99
2017-08-05T04:10:56.024Z,99.99
2017-08-05T04:12:05.229Z,99.99
2017-08-05T04:13:14.757Z,99.99
2017-08-05T04:14:24.620Z,99.99
2017-08-05T04:15:34.256Z,99.99
2017-08-05T04:16:43.138Z,99.99
2017-08-05T04:17:52.666Z,99.99
2017-08-05T04:19:02.849Z,99.99
2017-08-05T04:20:12.052Z,99.99
2017-08-05T04:21:22.105Z,99.99
2017-08-05T04:22:31.642Z,99.99
2017-08-05T04:23:41.175Z,99.99
2017-08-05T04:24:50.055Z,99.99
2017-08-05T04:25:59.591Z,99.99
2017-08-05T04:27:09.495Z,99.99
2017-08-05T04:28:18.700Z,99.99
2017-08-05T04:29:27.592Z,99.99
2017-08-05T04:30:36.471Z,99.99
2017-08-05T04:31:46.325Z,99.99
2017-08-05T04:32:56.226Z,99.99
2017-08-05T04:34:06.401Z,99.99
2017-08-05T04:35:15.928Z,99.99
2017-08-05T04:36:24.808Z,99.99
2017-08-05T04:37:34.338Z,99.99
2017-08-05T04:38:43.693Z,99.99
2017-08-05T04:39:53.226Z,99.99
2017-08-05T04:41:02.429Z,99.99
2017-08-05T04:42:12.281Z,99.99
2017-08-05T04:43:22.133Z,99.99
2017-08-05T04:44:31.488Z,99.99
2017-08-05T04:45:41.347Z,99.99
2017-08-05T04:46:50.879Z,99.99
2017-08-05T04:48:00.086Z,99.99
2017-08-05T04:49:09.621Z,99.99
2017-08-05T04:50:19.202Z,99.99
2017-08-05T04:51:28.728Z,99.99
2017-08-05T04:52:37.934Z,99.99
2017-08-05T04:53:47.142Z,99.99
2017-08-05T04:54:56.348Z,99.99
2017-08-05T04:56:05.885Z,99.99
2017-08-05T04:57:15.101Z,99.99
2017-08-05T04:58:24.307Z,99.99
2017-08-05T04:59:33.840Z,99.99
2017-08-05T05:00:43.694Z,99.99
2017-08-05T05:01:53.850Z,99.99
2017-08-05T05:03:03.061Z,99.99
2017-08-05T05:04:12.298Z,99.99
2017-08-05T05:05:22.151Z,99.99
2017-08-05T05:06:31.363Z,99.99
2017-08-05T05:07:41.201Z,99.99
2017-08-05T05:08:50.403Z,99.99
2017-08-05T05:09:59.609Z,99.99
2017-08-05T05:11:08.823Z,99.99
2017-08-05T05:12:17.706Z,99.99
2017-08-05T05:13:27.341Z,99.99
2017-08-05T05:14:36.546Z,99.99
2017-08-05T05:15:45.752Z,99.99
2017-08-05T05:16:54.644Z,99.99
2017-08-05T05:18:04.497Z,99.99
2017-08-05T05:19:13.476Z,99.99
2017-08-05T05:20:23.007Z,99.99
2017-08-05T05:21:32.539Z,99.99
2017-08-05T05:22:41.748Z,99.99
2017-08-05T05:23:51.276Z,99.99
2017-08-05T05:25:00.214Z,99.99
2017-08-05T05:26:09.752Z,99.99
2017-08-05T05:27:19.299Z,99.99
2017-08-05T05:28:28.513Z,99.99
2017-08-05T05:29:37.724Z,99.99
2017-08-05T05:30:47.581Z,99.99
2017-08-05T05:31:56.791Z,99.99
2017-08-05T05:33:06.005Z,99.99
2017-08-05T05:34:15.861Z,99.99
2017-08-05T05:35:25.077Z,99.99
2017-08-05T05:36:34.341Z,99.99
2017-08-05T05:37:44.197Z,99.99
2017-08-05T05:38:53.408Z,99.99
2017-08-05T05:40:02.616Z,99.99
2017-08-05T05:41:12.150Z,99.99
2017-08-05T05:42:22.481Z,99.99
2017-08-05T05:43:31.705Z,99.99
2017-08-05T05:44:40.589Z,99.99
2017-08-05T05:45:49.806Z,99.99
2017-08-05T05:46:59.345Z,99.99
2017-08-05T05:48:09.197Z,99.99
2017-08-05T05:49:19.052Z,99.99
2017-08-05T05:50:28.903Z,99.99
2017-08-05T05:51:38.116Z,99.99
2017-08-05T05:52:47.329Z,99.99
2017-08-05T05:53:56.312Z,99.99
2017-08-05T05:55:05.524Z,99.99
2017-08-05T05:56:15.709Z,99.99
2017-08-05T05:57:25.249Z,99.99
2017-08-05T05:58:34.457Z,99.99
2017-08-05T05:59:44.134Z,99.99
2017-08-05T06:00:53.337Z,99.99
2017-08-05T06:02:03.193Z,99.99
2017-08-05T06:03:13.071Z,99.99
2017-08-05T06:04:22.277Z,99.99
2017-08-05T06:05:31.859Z,99.99
2017-08-05T06:06:41.073Z,99.99
2017-08-05T06:07:51.253Z,99.99
2017-08-05T06:09:01.433Z,99.99
2017-08-05T06:10:11.288Z,99.99
2017-08-05T06:11:21.405Z,99.99
2017-08-05T06:12:30.941Z,99.99
2017-08-05T06:13:39.835Z,99.99
2017-08-05T06:14:48.723Z,99.99
2017-08-05T06:15:58.905Z,99.99
2017-08-05T06:17:08.501Z,99.99
2017-08-05T06:18:18.357Z,99.99
2017-08-05T06:19:27.886Z,99.99
2017-08-05T06:20:37.093Z,99.99
2017-08-05T06:21:46.301Z,99.99
2017-08-05T06:22:55.613Z,99.99
2017-08-05T06:24:04.826Z,99.99
2017-08-05T06:25:14.683Z,99.99
2017-08-05T06:26:24.211Z,99.99
2017-08-05T06:27:33.424Z,99.99
2017-08-05T06:28:43.426Z,99.99
2017-08-05T06:29:52.961Z,99.99
2017-08-05T06:31:01.847Z,99.99
2017-08-05T06:32:11.390Z,99.99
2017-08-05T06:33:20.609Z,99.99
2017-08-05T06:34:29.489Z,99.99
2017-08-05T06:35:39.020Z,99.99
2017-08-05T06:36:48.226Z,99.99
2017-08-05T06:37:57.757Z,99.99
2017-08-05T06:39:07.289Z,99.99
2017-08-05T06:40:17.125Z,99.99
2017-08-05T06:41:26.330Z,99.99
2017-08-05T06:42:36.506Z,99.99
2017-08-05T06:43:45.394Z,99.99
2017-08-05T06:44:54.603Z,99.99
2017-08-05T06:46:03.971Z,99.99
2017-08-05T06:47:13.503Z,99.99
2017-08-05T06:48:23.678Z,99.99
2017-08-05T06:49:32.892Z,99.99
2017-08-05T06:50:42.425Z,99.99
2017-08-05T06:51:51.695Z,99.99
2017-08-05T06:53:01.552Z,99.99
2017-08-05T06:54:11.415Z,99.99
2017-08-05T06:55:20.941Z,99.99
2017-08-05T06:56:30.156Z,99.99
2017-08-05T06:57:39.365Z,99.99
2017-08-05T06:58:48.588Z,99.99
2017-08-05T06:59:58.119Z,99.99
2017-08-05T07:01:07.661Z,99.99
2017-08-05T07:02:17.191Z,99.99
2017-08-05T07:03:26.769Z,99.99
2017-08-05T07:04:36.644Z,99.99
2017-08-05T07:05:45.856Z,99.99
2017-08-05T07:06:55.725Z,99.99
2017-08-05T07:08:04.939Z,99.99
2017-08-05T07:09:14.295Z,99.99
2017-08-05T07:10:23.863Z,99.99
2017-08-05T07:11:33.068Z,99.99
2017-08-05T07:12:42.282Z,99.99
2017-08-05T07:13:51.497Z,99.99
2017-08-05T07:15:01.333Z,99.99
2017-08-05T07:16:11.189Z,99.99
2017-08-05T07:17:20.770Z,99.99
2017-08-05T07:18:29.980Z,99.99
2017-08-05T07:19:39.841Z,99.99
2017-08-05T07:20:49.678Z,99.99
2017-08-05T07:21:59.221Z,99.99
2017-08-05T07:23:08.753Z,99.99
2017-08-05T07:24:18.289Z,99.99
2017-08-05T07:25:27.818Z,99.99
2017-08-05T07:26:37.349Z,99.99
2017-08-05T07:27:46.890Z,99.99
2017-08-05T07:28:56.103Z,99.99
2017-08-05T07:30:05.961Z,99.99
2017-08-05T07:31:15.498Z,99.99
2017-08-05T07:32:24.754Z,99.99
2017-08-05T07:33:34.651Z,99.99
2017-08-05T07:34:43.866Z,99.99
2017-08-05T07:35:53.409Z,99.99
2017-08-05T07:37:02.296Z,99.99
2017-08-05T07:38:11.828Z,99.99
2017-08-05T07:39:21.360Z,99.99
2017-08-05T07:40:30.250Z,99.99
2017-08-05T07:41:39.786Z,99.99
2017-08-05T07:42:48.677Z,99.99
2017-08-05T07:43:58.269Z,99.99
2017-08-05T07:45:07.809Z,99.99
2017-08-05T07:46:17.663Z,99.99
2017-08-05T07:47:27.220Z,99.99
2017-08-05T07:48:36.766Z,99.99
2017-08-05T07:49:46.928Z,99.99
2017-08-05T07:50:56.465Z,99.99
2017-08-05T07:52:05.724Z,99.99
2017-08-05T07:53:15.270Z,99.99
2017-08-05T07:54:24.805Z,99.99
2017-08-05T07:55:34.965Z,99.99
2017-08-05T07:56:44.822Z,99.99
2017-08-05T07:57:54.029Z,99.99
2017-08-05T07:59:02.915Z,99.99
2017-08-05T08:00:12.453Z,99.99
2017-08-05T08:01:22.457Z,99.99
2017-08-05T08:02:31.667Z,99.99
2017-08-05T08:03:40.560Z,99.99
2017-08-05T08:04:50.096Z,99.99
2017-08-05T08:05:59.957Z,99.99
2017-08-05T08:07:09.793Z,99.99
2017-08-05T08:08:19.328Z,99.99
2017-08-05T08:09:28.862Z,99.99
2017-08-05T08:10:39.047Z,99.99
2017-08-05T08:11:48.582Z,99.99
2017-08-05T08:12:58.265Z,99.99
2017-08-05T08:14:07.149Z,99.99
2017-08-05T08:15:16.686Z,99.99
2017-08-05T08:16:26.224Z,99.99
2017-08-05T08:17:35.755Z,99.99
2017-08-05T08:18:45.868Z,99.99
2017-08-05T08:19:54.758Z,99.99
2017-08-05T08:21:04.622Z,99.99
2017-08-05T08:22:13.830Z,99.99
2017-08-05T08:23:24.009Z,99.99
2017-08-05T08:24:34.012Z,99.99
2017-08-05T08:25:43.220Z,99.99
2017-08-05T08:26:52.754Z,99.99
2017-08-05T08:28:02.292Z,99.99
2017-08-05T08:29:11.503Z,99.99
2017-08-05T08:30:20.511Z,99.99
2017-08-05T08:31:30.695Z,99.99
2017-08-05T08:32:39.907Z,99.99
2017-08-05T08:33:48.800Z,99.99
2017-08-05T08:34:58.036Z,99.99
2017-08-05T08:36:07.969Z,99.99
2017-08-05T08:37:17.174Z,99.99
2017-08-05T08:38:26.380Z,99.99
2017-08-05T08:39:35.597Z,99.99
2017-08-05T08:40:44.483Z,99.99
2017-08-05T08:41:54.492Z,99.99
2017-08-05T08:43:04.354Z,99.99
2017-08-05T08:44:13.569Z,99.99
2017-08-05T08:45:23.106Z,99.99
2017-08-05T08:46:31.997Z,99.99
2017-08-05T08:47:41.829Z,99.99
2017-08-05T08:48:51.037Z,99.99
2017-08-05T08:50:00.250Z,99.99
2017-08-05T08:51:09.141Z,99.99
2017-08-05T08:52:18.027Z,99.99
2017-08-05T08:53:28.258Z,99.99
2017-08-05T08:54:37.789Z,99.99
2017-08-05T08:55:47.324Z,99.99
2017-08-05T08:56:56.210Z,99.99
2017-08-05T08:58:05.744Z,99.99
2017-08-05T08:59:14.980Z,99.99
2017-08-05T09:00:24.835Z,99.99
2017-08-05T09:01:34.055Z,99.99
2017-08-05T09:02:43.587Z,99.99
2017-08-05T09:03:53.117Z,99.99
2017-08-05T09:05:03.077Z,99.99
2017-08-05T09:06:12.613Z,99.99
2017-08-05T09:07:21.821Z,99.99
2017-08-05T09:08:31.034Z,99.99
2017-08-05T09:09:40.595Z,99.99
2017-08-05T09:10:50.324Z,99.99
2017-08-05T09:11:59.871Z,99.99
2017-08-05T09:13:09.402Z,99.99
2017-08-05T09:14:18.935Z,99.99
2017-08-05T09:15:28.793Z,99.99
2017-08-05T09:16:38.256Z,99.99
2017-08-05T09:17:47.483Z,99.99
2017-08-05T09:18:57.350Z,99.99
2017-08-05T09:20:06.889Z,99.99
2017-08-05T09:21:16.421Z,99.99
2017-08-05T09:22:25.728Z,99.99
2017-08-05T09:23:34.945Z,99.99
2017-08-05T09:24:44.153Z,99.99
2017-08-05T09:25:54.008Z,99.99
2017-08-05T09:27:03.545Z,99.99
2017-08-05T09:28:13.056Z,99.99
2017-08-05T09:29:22.590Z,99.99
2017-08-05T09:30:31.832Z,99.99
2017-08-05T09:31:41.365Z,99.99
2017-08-05T09:32:50.915Z,99.99
2017-08-05T09:34:00.451Z,99.99
2017-08-05T09:35:10.628Z,99.99
2017-08-05T09:36:19.514Z,99.99
2017-08-05T09:37:28.398Z,99.99
2017-08-05T09:38:37.940Z,99.99
2017-08-05T09:39:47.555Z,99.99
2017-08-05T09:40:57.414Z,99.99
2017-08-05T09:42:06.621Z,99.99
2017-08-05T09:43:15.832Z,99.99
2017-08-05T09:44:25.045Z,99.99
2017-08-05T09:45:34.576Z,99.99
2017-08-05T09:46:43.473Z,99.99
2017-08-05T09:47:52.693Z,99.99
2017-08-05T09:49:02.243Z,99.99
2017-08-05T09:50:11.775Z,99.99
2017-08-05T09:51:21.934Z,99.99
2017-08-05T09:52:30.821Z,99.99
2017-08-05T09:53:40.677Z,99.99
2017-08-05T09:54:50.533Z,99.99
2017-08-05T09:55:59.436Z,99.99
2017-08-05T09:57:08.762Z,99.99
2017-08-05T09:58:18.300Z,99.99
2017-08-05T09:59:27.829Z,99.99
2017-08-05T10:00:37.367Z,99.99
2017-08-05T10:01:46.577Z,99.99
2017-08-05T10:02:56.173Z,99.99
2017-08-05T10:04:05.387Z,99.99
2017-08-05T10:05:14.593Z,99.99
2017-08-05T10:06:24.136Z,99.99
2017-08-05T10:07:33.348Z,99.99
2017-08-05T10:08:42.718Z,99.99
2017-08-05T10:09:52.255Z,99.99
2017-08-05T10:11:01.804Z,99.99
2017-08-05T10:12:11.335Z,99.99
2017-08-05T10:13:20.868Z,99.99
2017-08-05T10:14:30.875Z,99.99
2017-08-05T10:15:40.083Z,99.99
2017-08-05T10:16:49.614Z,99.99
2017-08-05T10:17:59.147Z,99.99
2017-08-05T10:19:08.357Z,99.99
2017-08-05T10:20:17.670Z,99.99
2017-08-05T10:21:27.214Z,99.99
2017-08-05T10:22:36.099Z,99.99
2017-08-05T10:23:45.306Z,99.99
2017-08-05T10:24:54.514Z,99.99
2017-08-05T10:26:03.402Z,99.99
2017-08-05T10:27:13.259Z,99.99
2017-08-05T10:28:22.144Z,99.99
2017-08-05T10:29:31.355Z,99.99
2017-08-05T10:30:41.533Z,99.99
2017-08-05T10:31:50.894Z,99.99
2017-08-05T10:33:00.577Z,99.99
2017-08-05T10:34:09.791Z,99.99
2017-08-05T10:35:19.001Z,99.99
2017-08-05T10:36:28.536Z,99.99
2017-08-05T10:37:38.079Z,99.99
2017-08-05T10:38:46.966Z,99.99
2017-08-05T10:39:56.823Z,99.98
2017-08-05T10:41:06.365Z,99.99
2017-08-05T10:42:15.574Z,99.99
2017-08-05T10:43:25.035Z,99.93
2017-08-05T10:44:34.893Z,99.64
2017-08-05T10:45:44.113Z,99.83
2017-08-05T10:46:53.324Z,99.99
2017-08-05T10:48:02.541Z,99.73
2017-08-05T10:49:12.179Z,98.1
2017-08-05T10:50:21.719Z,98
2017-08-05T10:51:30.929Z,98
2017-08-05T10:52:40.137Z,98.24
2017-08-05T10:53:49.354Z,97.91
2017-08-05T10:54:58.624Z,97.81
2017-08-05T10:56:07.510Z,98.68
2017-08-05T10:57:16.723Z,99.44
2017-08-05T10:58:26.268Z,98.63
2017-08-05T10:59:36.449Z,98.05
2017-08-05T11:00:46.629Z,98.34
2017-08-05T11:01:55.521Z,98.72
2017-08-05T11:03:05.379Z,98.63
2017-08-05T11:04:14.594Z,98.24
2017-08-05T11:05:24.778Z,97.96
2017-08-05T11:06:34.371Z,96.61
2017-08-05T11:07:43.908Z,96.32
2017-08-05T11:08:53.126Z,96.7
2017-08-05T11:10:02.984Z,96.99
2017-08-05T11:11:11.898Z,96.89
2017-08-05T11:12:21.034Z,97.04
2017-08-05T11:13:30.570Z,97.91
2017-08-05T11:14:40.105Z,97.24
2017-08-05T11:15:49.315Z,96.85
2017-08-05T11:16:58.526Z,96.17
2017-08-05T11:18:07.896Z,95.79
2017-08-05T11:19:17.431Z,96.46
2017-08-05T11:20:26.325Z,96.12
2017-08-05T11:21:35.860Z,97.09
2017-08-05T11:22:45.396Z,96.51
2017-08-05T11:23:54.758Z,95.94
2017-08-05T11:25:04.294Z,97.09
2017-08-05T11:26:13.183Z,97.86
2017-08-05T11:27:22.072Z,97.52
2017-08-05T11:28:30.959Z,96.46
2017-08-05T11:29:40.320Z,95.5
2017-08-05T11:30:49.862Z,96.27
2017-08-05T11:31:58.749Z,95.4
2017-08-05T11:33:08.286Z,95.5
2017-08-05T11:34:17.824Z,95.31
2017-08-05T11:35:26.858Z,95.12
2017-08-05T11:36:36.402Z,93.38
2017-08-05T11:37:45.937Z,93.48
2017-08-05T11:38:55.477Z,94.01
2017-08-05T11:40:05.689Z,93.91
2017-08-05T11:41:15.323Z,94.01
2017-08-05T11:42:24.542Z,94.59
2017-08-05T11:43:33.427Z,94.59
2017-08-05T11:44:42.963Z,93.81
2017-08-05T11:45:52.498Z,94.78
2017-08-05T11:47:02.233Z,95.45
2017-08-05T11:48:11.770Z,93.14
2017-08-05T11:49:20.660Z,93.14
2017-08-05T11:50:29.880Z,93.04
2017-08-05T11:51:39.419Z,93.19
2017-08-05T11:52:48.786Z,90.88
2017-08-05T11:53:57.999Z,91.16
2017-08-05T11:55:07.541Z,91.55
2017-08-05T11:56:16.756Z,90.34
2017-08-05T11:57:25.642Z,91.31
2017-08-05T11:58:34.685Z,91.45
2017-08-05T11:59:44.220Z,90.78
2017-08-05T12:00:53.757Z,91.26
2017-08-05T12:02:02.646Z,92.32
2017-08-05T12:03:11.856Z,91.26
2017-08-05T12:04:20.995Z,91.64
2017-08-05T12:05:29.887Z,90.97
2017-08-05T12:06:39.751Z,90.3
2017-08-05T12:07:49.290Z,90.88
2017-08-05T12:08:58.506Z,91.16
2017-08-05T12:10:08.768Z,90.1
2017-08-05T12:11:18.310Z,90.34
2017-08-05T12:12:27.540Z,90.88
2017-08-05T12:13:36.761Z,90.58
2017-08-05T12:14:46.619Z,91.45
2017-08-05T12:15:55.832Z,91.2
2017-08-05T12:17:05.050Z,92.36
2017-08-05T12:18:14.585Z,91.02
2017-08-05T12:19:24.123Z,89.86
2017-08-05T12:20:33.351Z,89.95
2017-08-05T12:21:43.238Z,89.86
2017-08-05T12:22:52.776Z,88.41
2017-08-05T12:24:02.634Z,89.47
2017-08-05T12:25:12.504Z,89.57
2017-08-05T12:26:21.723Z,89.37
2017-08-05T12:27:31.235Z,87.35
2017-08-05T12:28:40.458Z,87.93
2017-08-05T12:29:50.336Z,88.17
2017-08-05T12:30:59.548Z,87.1
2017-08-05T12:32:09.735Z,85.12
2017-08-05T12:33:18.728Z,85.12
2017-08-05T12:34:28.271Z,85.75
2017-08-05T12:35:37.814Z,85.8
2017-08-05T12:36:47.676Z,85.41
2017-08-05T12:37:56.897Z,85.22
2017-08-05T12:39:06.826Z,85.22
2017-08-05T12:40:15.726Z,84.93
2017-08-05T12:41:25.586Z,85.22
2017-08-05T12:42:34.806Z,82.84
2017-08-05T12:43:44.363Z,82.61
2017-08-05T12:44:53.585Z,82.81
2017-08-05T12:46:02.801Z,82.61
2017-08-05T12:47:11.693Z,81.35
2017-08-05T12:48:20.910Z,82.32
2017-08-05T12:49:30.452Z,82.23
2017-08-05T12:50:39.595Z,82.51
2017-08-05T12:51:49.455Z,83.29
2017-08-05T12:52:58.674Z,84.93
2017-08-05T12:54:08.544Z,84.41
2017-08-05T12:55:18.078Z,85.27
2017-08-05T12:56:28.089Z,85.22
2017-08-05T12:57:37.627Z,84.79
2017-08-05T12:58:46.841Z,85.75
2017-08-05T12:59:55.743Z,84.59
2017-08-05T13:01:04.956Z,84.11
2017-08-05T13:02:15.186Z,83.15
2017-08-05T13:03:24.398Z,83.67
2017-08-05T13:04:33.608Z,84.54
2017-08-05T13:05:42.825Z,83.96
2017-08-05T13:06:52.685Z,83
2017-08-05T13:08:02.051Z,82.9
2017-08-05T13:09:12.236Z,82.46
2017-08-05T13:10:21.452Z,81.88
2017-08-05T13:11:31.312Z,81.49
2017-08-05T13:12:41.173Z,81.01
2017-08-05T13:13:50.870Z,81.88
2017-08-05T13:15:01.055Z,81.49
2017-08-05T13:16:10.270Z,82.17
2017-08-05T13:17:19.819Z,82.07
2017-08-05T13:18:29.361Z,80.91
2017-08-05T13:19:39.050Z,81.53
2017-08-05T13:20:47.942Z,80.57
2017-08-05T13:21:57.476Z,80.14
2017-08-05T13:23:07.333Z,79.62
2017-08-05T13:24:17.190Z,79.58
2017-08-05T13:25:26.451Z,80.16
2017-08-05T13:26:36.310Z,81.76
2017-08-05T13:27:45.201Z,83.16
2017-08-05T13:28:54.413Z,83.84
2017-08-05T13:30:04.271Z,84.8
2017-08-05T13:31:14.290Z,84.03
2017-08-05T13:32:24.147Z,85.43
2017-08-05T13:33:33.680Z,83.66
2017-08-05T13:34:42.895Z,86.35
2017-08-05T13:35:52.431Z,86.51
2017-08-05T13:37:01.648Z,86.99
2017-08-05T13:38:11.183Z,86.41
2017-08-05T13:39:21.050Z,86.89
2017-08-05T13:40:30.266Z,87.46
2017-08-05T13:41:39.809Z,87.18
2017-08-05T13:42:49.168Z,86.12
2017-08-05T13:43:58.062Z,85.64
2017-08-05T13:45:07.273Z,86.31
2017-08-05T13:46:16.810Z,86.99
2017-08-05T13:47:26.343Z,86.89
2017-08-05T13:48:35.803Z,87.9
2017-08-05T13:49:45.656Z,88.29
2017-08-05T13:50:54.863Z,88.87
2017-08-05T13:52:04.719Z,88.77
2017-08-05T13:53:13.602Z,88.87
2017-08-05T13:54:23.309Z,88.67
2017-08-05T13:55:32.848Z,89.98
2017-08-05T13:56:42.382Z,90.65
2017-08-05T13:57:52.245Z,91.71
2017-08-05T13:59:01.129Z,90.84
2017-08-05T14:00:10.747Z,90.79
2017-08-05T14:01:20.274Z,90.84
2017-08-05T14:02:29.501Z,91.9
2017-08-05T14:03:38.725Z,92.57
2017-08-05T14:04:48.265Z,94.4
2017-08-05T14:05:57.724Z,94.3
2017-08-05T14:07:07.585Z,97.67
2017-08-05T14:08:16.467Z,98.44
2017-08-05T14:09:25.999Z,97.47
2017-08-05T14:10:35.218Z,94.98
2017-08-05T14:11:45.795Z,95.36
2017-08-05T14:12:55.014Z,94.3
2017-08-05T14:14:04.550Z,94.21
2017-08-05T14:15:13.431Z,94.88
2017-08-05T14:16:22.642Z,95.07
2017-08-05T14:17:32.152Z,94.98
2017-08-05T14:18:41.047Z,97.09
2017-08-05T14:19:50.905Z,97.96
2017-08-05T14:21:00.115Z,96.51
2017-08-05T14:22:09.326Z,95.55
2017-08-05T14:23:18.684Z,95.55
2017-08-05T14:24:28.228Z,94.3
2017-08-05T14:25:37.762Z,94.11
2017-08-05T14:26:46.969Z,93.91
2017-08-05T14:27:55.855Z,94.01
2017-08-05T14:29:05.064Z,94.11
2017-08-05T14:30:14.274Z,93.63
2017-08-05T14:31:23.816Z,93.24
2017-08-05T14:32:32.706Z,93.05
2017-08-05T14:33:41.917Z,92.47
2017-08-05T14:34:51.430Z,91.42
2017-08-05T14:36:00.646Z,91.71
2017-08-05T14:37:10.821Z,90.55
2017-08-05T14:38:20.687Z,89.21
2017-08-05T14:39:30.220Z,89.78
2017-08-05T14:40:39.462Z,90.17
2017-08-05T14:41:48.673Z,90.5
2017-08-05T14:42:58.528Z,91.61
2017-08-05T14:44:08.439Z,91.99
2017-08-05T14:45:17.970Z,91.27
2017-08-05T14:46:27.829Z,91.27
2017-08-05T14:47:37.365Z,92.13
2017-08-05T14:48:46.575Z,91.85
2017-08-05T14:49:55.783Z,91.56
2017-08-05T14:51:05.321Z,90.83
2017-08-05T14:52:14.456Z,89.78
2017-08-05T14:53:23.989Z,89.87
2017-08-05T14:54:33.851Z,89.49
2017-08-05T14:55:43.395Z,89.1